Taiseimaru — JL6483 — position and weather

sailwx.info

Track history (hours):
 
Tides and Currents Weather Stations Pressure Air Temp Water Temp Dewpoint Dewpoint Depression Visibility Wind Speed Wind Dir Waves Ship Positions

Taiseimaru

Last reported at 2016-Apr-29 10:33 UTC. Time now 2016-May-05 04:43 UTC.
Position N 34°60' E 140°09'.

Length 84 m; draft 4.7 m.

Type: Cargo ship. MMSI: 431500568.

Date/timePositionNaut miles runAvg speedWind from/ knotsBaromVisibWave heightAir tempDewpointWater temp
2016-Apr-29 10:33N 34°60' E 140°09'1110.8
2016-Apr-29 09:31N 34°54' E 139°58'16 8.1
2016-Apr-29 07:33N 35°06' E 139°44'1211.8
2016-Apr-29 06:33N 35°17' E 139°45'5 5.4
2016-Apr-29 05:33N 35°21' E 139°40'0 0.0
2016-Apr-29 04:33N 35°21' E 139°40'0 0.0
2016-Apr-29 03:33N 35°21' E 139°40'0 0.0
2016-Apr-29 02:33N 35°21' E 139°40'0 0.0
2016-Apr-29 01:33N 35°21' E 139°40'0 0.0
2016-Apr-29 00:33N 35°21' E 139°40'0 0.0
2016-Apr-28 23:33N 35°21' E 139°40'0 0.0
2016-Apr-28 22:33N 35°21' E 139°40'0 0.0
2016-Apr-28 21:33N 35°21' E 139°40'0 0.0
2016-Apr-28 20:33N 35°21' E 139°40'0 0.0
2016-Apr-28 19:32N 35°21' E 139°40'0 0.1
2016-Apr-28 18:32N 35°21' E 139°40'0 0.0
2016-Apr-28 17:32N 35°21' E 139°40'0 0.0
2016-Apr-28 16:32N 35°21' E 139°40'0 0.0
2016-Apr-28 15:29N 35°21' E 139°40'0 0.0
2016-Apr-28 14:32N 35°21' E 139°40'0 0.0
2016-Apr-28 13:32N 35°21' E 139°40'0 0.0
2016-Apr-28 12:32N 35°21' E 139°40'0 0.0
2016-Apr-28 11:32N 35°21' E 139°40'0 0.0
2016-Apr-28 10:29N 35°21' E 139°40'0 0.0
2016-Apr-28 09:32N 35°21' E 139°40'0 0.0
2016-Apr-28 08:32N 35°21' E 139°40'0 0.0
2016-Apr-28 07:29N 35°21' E 139°40'0 0.1
2016-Apr-28 06:32N 35°21' E 139°40'0 0.0
2016-Apr-28 05:32N 35°21' E 139°40'0 0.0
2016-Apr-28 04:32N 35°21' E 139°40'0 0.0
2016-Apr-28 03:32N 35°21' E 139°40'0 0.0
2016-Apr-28 02:32N 35°21' E 139°40'0 0.0
2016-Apr-28 01:32N 35°21' E 139°40'0 0.0
2016-Apr-28 00:32N 35°21' E 139°40'0 0.0
2016-Apr-27 23:32N 35°21' E 139°40'0 0.0
2016-Apr-27 22:32N 35°21' E 139°40'0 0.0
2016-Apr-27 21:32N 35°21' E 139°40'0 0.0
2016-Apr-27 20:33N 35°21' E 139°40'8 8.5
2016-Apr-27 19:33N 35°15' E 139°47'1010.5
2016-Apr-27 18:33N 35°05' E 139°42'251 9.6
2016-Apr-26 16:27N 34°06' E 134°46'  
2016-Apr-23 20:10N 34°35' E 134°51'610.4
2016-Apr-23 19:33N 34°38' E 134°58'8 8.0
2016-Apr-23 18:33N 34°32' E 135°05'1110.8
2016-Apr-23 17:33N 34°22' E 135°04'8 7.6
2016-Apr-23 16:33N 34°14' E 135°07'1 0.9
2016-Apr-23 15:34N 34°14' E 135°08'0 0.0
2016-Apr-23 14:33N 34°14' E 135°08'0 0.0
2016-Apr-23 13:33N 34°14' E 135°08'0 0.0
2016-Apr-23 12:33N 34°14' E 135°08'0 0.0
2016-Apr-23 11:33N 34°14' E 135°08'0 0.0
2016-Apr-23 10:33N 34°14' E 135°08'0 0.0
2016-Apr-23 09:33N 34°14' E 135°08'0 0.0
2016-Apr-23 08:33N 34°14' E 135°08'0 0.0
2016-Apr-23 07:34N 34°14' E 135°08'2 2.1
2016-Apr-23 06:32N 34°15' E 135°06'0 0.0
2016-Apr-23 05:32N 34°15' E 135°06'0 0.0
2016-Apr-23 04:29N 34°15' E 135°06'0 0.0
2016-Apr-23 03:33N 34°15' E 135°06'7 7.4
2016-Apr-23 02:33N 34°08' E 135°03'176 8.8
2016-Apr-22 06:30N 34°30' E 138°33'5110.2
2016-Apr-22 01:30N 34°58' E 139°25'1011.1
2016-Apr-22 00:33N 35°04' E 139°36'1111.0
2016-Apr-21 23:33N 35°11' E 139°46'1010.4
2016-Apr-21 22:33N 35°21' E 139°41'0 0.4
2016-Apr-21 21:30N 35°21' E 139°40'0 0.0
2016-Apr-21 20:33N 35°21' E 139°40'0 0.0
2016-Apr-21 19:33N 35°21' E 139°40'0 0.0
2016-Apr-21 18:27N 35°21' E 139°40'0 0.0
2016-Apr-21 17:33N 35°21' E 139°40'0 0.1
2016-Apr-21 16:33N 35°21' E 139°40'0 0.0
2016-Apr-21 15:33N 35°21' E 139°40'0 0.0
2016-Apr-21 14:33N 35°21' E 139°40'0 0.0
2016-Apr-21 13:33N 35°21' E 139°40'0 0.0
2016-Apr-21 12:33N 35°21' E 139°40'0 0.0
2016-Apr-21 11:33N 35°21' E 139°40'0 0.1
2016-Apr-21 10:34N 35°21' E 139°40'0 0.0
2016-Apr-21 09:34N 35°21' E 139°40'0 0.0
2016-Apr-21 08:34N 35°21' E 139°40'0 0.0
2016-Apr-21 07:33N 35°21' E 139°40'0 0.0
2016-Apr-21 06:33N 35°21' E 139°40'0 0.0
2016-Apr-21 05:32N 35°21' E 139°40'0 0.0
2016-Apr-21 04:32N 35°21' E 139°40'0 0.0
2016-Apr-21 03:29N 35°21' E 139°40'0 0.0
2016-Apr-21 02:32N 35°21' E 139°40'4 4.1
2016-Apr-21 01:34N 35°19' E 139°44'1010.2
2016-Apr-21 00:34N 35°09' E 139°46'1111.0
2016-Apr-20 23:33N 34°58' E 139°44'11 9.5
2016-Apr-20 22:21N 34°53' E 139°57'810.4
2016-Apr-20 21:34N 34°58' E 140°05'1010.0
2016-Apr-20 20:33N 35°04' E 140°15'11 8.3
2016-Apr-20 19:15N 35°10' E 140°26'6 8.9
2016-Apr-20 18:33N 35°15' E 140°31'1110.2
2016-Apr-20 17:26N 35°23' E 140°39'  
Track history (hours):
 
Tides and Currents Weather Stations Pressure Air Temp Water Temp Dewpoint Dewpoint Depression Visibility Wind Speed Wind Dir Waves Ship Positions

Taiseimaru

Last reported at 2016-Apr-29 10:33 UTC. Time now 2016-May-05 04:43 UTC.
Position N 34°60' E 140°09'.

Length 84 m; draft 4.7 m.

Type: Cargo ship. MMSI: 431500568.

Date/timePositionNaut miles runAvg speedWind from/ knotsBaromVisibWave heightAir tempDewpointWater temp
2016-Apr-29 10:33N 34°60' E 140°09'1110.8
2016-Apr-29 09:31N 34°54' E 139°58'16 8.1
2016-Apr-29 07:33N 35°06' E 139°44'1211.8
2016-Apr-29 06:33N 35°17' E 139°45'5 5.4
2016-Apr-29 05:33N 35°21' E 139°40'0 0.0
2016-Apr-29 04:33N 35°21' E 139°40'0 0.0
2016-Apr-29 03:33N 35°21' E 139°40'0 0.0
2016-Apr-29 02:33N 35°21' E 139°40'0 0.0
2016-Apr-29 01:33N 35°21' E 139°40'0 0.0
2016-Apr-29 00:33N 35°21' E 139°40'0 0.0
2016-Apr-28 23:33N 35°21' E 139°40'0 0.0
2016-Apr-28 22:33N 35°21' E 139°40'0 0.0
2016-Apr-28 21:33N 35°21' E 139°40'0 0.0
2016-Apr-28 20:33N 35°21' E 139°40'0 0.0
2016-Apr-28 19:32N 35°21' E 139°40'0 0.1
2016-Apr-28 18:32N 35°21' E 139°40'0 0.0
2016-Apr-28 17:32N 35°21' E 139°40'0 0.0
2016-Apr-28 16:32N 35°21' E 139°40'0 0.0
2016-Apr-28 15:29N 35°21' E 139°40'0 0.0
2016-Apr-28 14:32N 35°21' E 139°40'0 0.0
2016-Apr-28 13:32N 35°21' E 139°40'0 0.0
2016-Apr-28 12:32N 35°21' E 139°40'0 0.0
2016-Apr-28 11:32N 35°21' E 139°40'0 0.0
2016-Apr-28 10:29N 35°21' E 139°40'0 0.0
2016-Apr-28 09:32N 35°21' E 139°40'0 0.0
2016-Apr-28 08:32N 35°21' E 139°40'0 0.0
2016-Apr-28 07:29N 35°21' E 139°40'0 0.1
2016-Apr-28 06:32N 35°21' E 139°40'0 0.0
2016-Apr-28 05:32N 35°21' E 139°40'0 0.0
2016-Apr-28 04:32N 35°21' E 139°40'0 0.0
2016-Apr-28 03:32N 35°21' E 139°40'0 0.0
2016-Apr-28 02:32N 35°21' E 139°40'0 0.0
2016-Apr-28 01:32N 35°21' E 139°40'0 0.0
2016-Apr-28 00:32N 35°21' E 139°40'0 0.0
2016-Apr-27 23:32N 35°21' E 139°40'0 0.0
2016-Apr-27 22:32N 35°21' E 139°40'0 0.0
2016-Apr-27 21:32N 35°21' E 139°40'0 0.0
2016-Apr-27 20:33N 35°21' E 139°40'8 8.5
2016-Apr-27 19:33N 35°15' E 139°47'1010.5
2016-Apr-27 18:33N 35°05' E 139°42'251 9.6
2016-Apr-26 16:27N 34°06' E 134°46'  
2016-Apr-23 20:10N 34°35' E 134°51'610.4
2016-Apr-23 19:33N 34°38' E 134°58'8 8.0
2016-Apr-23 18:33N 34°32' E 135°05'1110.8
2016-Apr-23 17:33N 34°22' E 135°04'8 7.6
2016-Apr-23 16:33N 34°14' E 135°07'1 0.9
2016-Apr-23 15:34N 34°14' E 135°08'0 0.0
2016-Apr-23 14:33N 34°14' E 135°08'0 0.0
2016-Apr-23 13:33N 34°14' E 135°08'0 0.0
2016-Apr-23 12:33N 34°14' E 135°08'0 0.0
2016-Apr-23 11:33N 34°14' E 135°08'0 0.0
2016-Apr-23 10:33N 34°14' E 135°08'0 0.0
2016-Apr-23 09:33N 34°14' E 135°08'0 0.0
2016-Apr-23 08:33N 34°14' E 135°08'0 0.0
2016-Apr-23 07:34N 34°14' E 135°08'2 2.1
2016-Apr-23 06:32N 34°15' E 135°06'0 0.0
2016-Apr-23 05:32N 34°15' E 135°06'0 0.0
2016-Apr-23 04:29N 34°15' E 135°06'0 0.0
2016-Apr-23 03:33N 34°15' E 135°06'7 7.4
2016-Apr-23 02:33N 34°08' E 135°03'176 8.8
2016-Apr-22 06:30N 34°30' E 138°33'5110.2
2016-Apr-22 01:30N 34°58' E 139°25'1011.1
2016-Apr-22 00:33N 35°04' E 139°36'1111.0
2016-Apr-21 23:33N 35°11' E 139°46'1010.4
2016-Apr-21 22:33N 35°21' E 139°41'0 0.4
2016-Apr-21 21:30N 35°21' E 139°40'0 0.0
2016-Apr-21 20:33N 35°21' E 139°40'0 0.0
2016-Apr-21 19:33N 35°21' E 139°40'0 0.0
2016-Apr-21 18:27N 35°21' E 139°40'0 0.0
2016-Apr-21 17:33N 35°21' E 139°40'0 0.1
2016-Apr-21 16:33N 35°21' E 139°40'0 0.0
2016-Apr-21 15:33N 35°21' E 139°40'0 0.0
2016-Apr-21 14:33N 35°21' E 139°40'0 0.0
2016-Apr-21 13:33N 35°21' E 139°40'0 0.0
2016-Apr-21 12:33N 35°21' E 139°40'0 0.0
2016-Apr-21 11:33N 35°21' E 139°40'0 0.1
2016-Apr-21 10:34N 35°21' E 139°40'0 0.0
2016-Apr-21 09:34N 35°21' E 139°40'0 0.0
2016-Apr-21 08:34N 35°21' E 139°40'0 0.0
2016-Apr-21 07:33N 35°21' E 139°40'0 0.0
2016-Apr-21 06:33N 35°21' E 139°40'0 0.0
2016-Apr-21 05:32N 35°21' E 139°40'0 0.0
2016-Apr-21 04:32N 35°21' E 139°40'0 0.0
2016-Apr-21 03:29N 35°21' E 139°40'0 0.0
2016-Apr-21 02:32N 35°21' E 139°40'4 4.1
2016-Apr-21 01:34N 35°19' E 139°44'1010.2
2016-Apr-21 00:34N 35°09' E 139°46'1111.0
2016-Apr-20 23:33N 34°58' E 139°44'11 9.5
2016-Apr-20 22:21N 34°53' E 139°57'810.4
2016-Apr-20 21:34N 34°58' E 140°05'1010.0
2016-Apr-20 20:33N 35°04' E 140°15'11 8.3
2016-Apr-20 19:15N 35°10' E 140°26'6 8.9
2016-Apr-20 18:33N 35°15' E 140°31'1110.2
2016-Apr-20 17:26N 35°23' E 140°39'  

Dump ship's entire track history